Time;durP1;ratioP1;P1;durP2;ratioP2;P2;SDS_P1;SDS_P2;PMS_P1;PMS_P2;Temp;Humidity;BMP_temperature;BMP_pressure;BME280_temperature;BME280_humidity;BME280_pressure;Samples;Min_cycle;Max_cycle;Signal;HPM_P1;HPM_P2
2021/11/15 00:02:24;;;;;;;67.28;27.20;;;7.80;99.90;;;;;;4771658;29;20042;-89
2021/11/15 00:04:51;;;;;;;67.78;25.38;;;7.80;99.90;;;;;;4777501;29;20050;-87
2021/11/15 00:07:17;;;;;;;61.40;23.90;;;7.80;99.90;;;;;;4773177;29;20046;-87
2021/11/15 00:09:43;;;;;;;63.35;24.50;;;7.80;99.90;;;;;;4786578;29;20060;-86
2021/11/15 00:12:10;;;;;;;58.58;23.48;;;7.80;99.90;;;;;;4763773;29;20046;-87
2021/11/15 00:14:37;;;;;;;56.65;23.10;;;7.70;99.90;;;;;;4770409;29;20572;-87
2021/11/15 00:17:04;;;;;;;66.38;24.23;;;7.70;99.90;;;;;;4778712;29;20102;-89
2021/11/15 00:19:30;;;;;;;57.38;23.15;;;7.70;99.90;;;;;;4769699;29;20042;-87
2021/11/15 00:21:56;;;;;;;69.90;26.77;;;7.70;99.90;;;;;;4756280;29;20533;-87
2021/11/15 00:24:22;;;;;;;69.05;25.20;;;7.70;99.90;;;;;;4763937;29;20479;-88
2021/11/15 00:26:48;;;;;;;60.92;23.17;;;7.70;99.90;;;;;;4776469;29;20320;-88
2021/11/15 00:29:14;;;;;;;72.60;25.85;;;7.70;99.90;;;;;;4749031;29;20046;-87
2021/11/15 00:31:39;;;;;;;58.88;24.83;;;7.70;99.90;;;;;;4752524;29;20087;-90
2021/11/15 00:34:05;;;;;;;72.45;27.30;;;7.70;99.90;;;;;;4751135;29;20311;-88
2021/11/15 00:36:31;;;;;;;71.50;28.50;;;7.70;99.90;;;;;;4766886;29;21511;-88
2021/11/15 00:38:57;;;;;;;67.90;26.23;;;7.60;99.90;;;;;;4785232;29;20175;-87
2021/11/15 00:41:23;;;;;;;69.25;27.50;;;7.70;99.90;;;;;;4761134;29;20058;-88
2021/11/15 00:43:49;;;;;;;70.07;27.45;;;7.70;99.90;;;;;;4780895;29;20043;-87
2021/11/15 00:46:15;;;;;;;73.07;27.55;;;7.60;99.90;;;;;;4768734;29;20040;-87
2021/11/15 00:48:41;;;;;;;82.00;28.27;;;7.70;99.90;;;;;;4794009;29;20126;-88
2021/11/15 00:51:07;;;;;;;65.00;27.08;;;7.60;99.90;;;;;;4773528;29;20046;-90
2021/11/15 00:53:32;;;;;;;69.55;26.63;;;7.60;99.90;;;;;;4753346;29;20043;-87
2021/11/15 00:55:58;;;;;;;62.50;26.23;;;7.60;99.90;;;;;;4763346;29;20046;-87
2021/11/15 00:58:24;;;;;;;64.00;26.02;;;7.60;99.90;;;;;;4769240;29;20538;-87
2021/11/15 01:00:50;;;;;;;69.47;25.58;;;7.60;99.90;;;;;;4767863;29;20050;-90
2021/11/15 01:03:16;;;;;;;66.97;25.48;;;7.60;99.90;;;;;;4766411;29;20046;-87
2021/11/15 01:05:49;;;;;;;61.60;24.55;;;7.60;99.90;;;;;;4783371;29;20585;-86
2021/11/15 01:08:17;;;;;;;58.67;24.30;;;7.60;99.90;;;;;;4793837;29;20057;-88
2021/11/15 01:10:44;;;;;;;59.08;24.45;;;7.60;99.90;;;;;;4781687;29;20065;-88
2021/11/15 01:13:10;;;;;;;64.13;24.30;;;7.60;99.90;;;;;;4764065;29;20042;-88
2021/11/15 01:15:39;;;;;;;50.15;22.73;;;7.60;99.90;;;;;;4764960;29;20061;-90
2021/11/15 01:18:05;;;;;;;53.15;22.27;;;7.60;99.90;;;;;;4761703;29;20046;-87
2021/11/15 01:20:33;;;;;;;55.10;23.40;;;7.60;99.90;;;;;;4778876;29;20097;-87
2021/11/15 01:22:59;;;;;;;50.45;21.30;;;7.60;99.90;;;;;;4772157;29;20053;-89
2021/11/15 01:25:26;;;;;;;54.40;21.70;;;7.60;99.90;;;;;;4767869;29;20115;-87
2021/11/15 01:27:53;;;;;;;55.05;20.98;;;7.60;99.90;;;;;;4764359;29;20509;-87
2021/11/15 01:30:20;;;;;;;49.78;20.20;;;7.60;99.90;;;;;;4760373;29;20074;-87
2021/11/15 01:32:47;;;;;;;46.15;20.67;;;7.50;99.90;;;;;;4805835;29;20054;-89
2021/11/15 01:35:13;;;;;;;43.55;18.48;;;7.50;99.90;;;;;;4762196;29;20177;-89
2021/11/15 01:37:39;;;;;;;53.00;21.55;;;7.50;99.90;;;;;;4789979;29;20099;-85
2021/11/15 01:40:09;;;;;;;42.17;18.48;;;7.50;99.90;;;;;;4784947;29;20042;-87
2021/11/15 01:42:36;;;;;;;43.85;18.92;;;7.50;99.90;;;;;;4792101;29;20050;-85
2021/11/15 01:45:02;;;;;;;42.53;18.08;;;7.50;99.90;;;;;;4792496;29;20042;-87
2021/11/15 01:47:28;;;;;;;45.45;18.70;;;7.50;99.90;;;;;;4804027;29;20054;-86
2021/11/15 01:49:54;;;;;;;42.17;17.98;;;7.50;99.90;;;;;;4760901;29;20042;-89
2021/11/15 01:52:20;;;;;;;46.88;18.50;;;7.50;99.90;;;;;;4760230;29;20050;-87
2021/11/15 01:54:45;;;;;;;37.03;17.38;;;7.50;99.90;;;;;;4772599;29;20045;-87
2021/11/15 01:57:13;;;;;;;47.97;19.25;;;7.50;99.90;;;;;;4763012;29;20062;-88
2021/11/15 01:59:39;;;;;;;47.13;18.70;;;7.40;99.90;;;;;;4751130;29;20081;-87
2021/11/15 02:02:05;;;;;;;48.17;20.05;;;7.50;99.90;;;;;;4760785;29;20124;-89
2021/11/15 02:04:31;;;;;;;48.63;20.23;;;7.40;99.90;;;;;;4790875;29;20050;-88
2021/11/15 02:06:57;;;;;;;49.38;21.58;;;7.40;99.90;;;;;;4776173;29;20046;-86
2021/11/15 02:09:24;;;;;;;57.05;22.30;;;7.40;99.90;;;;;;4757669;29;20057;-86
2021/11/15 02:11:50;;;;;;;48.40;22.25;;;7.40;99.90;;;;;;4779839;29;20039;-86
2021/11/15 02:14:16;;;;;;;52.70;22.50;;;7.40;99.90;;;;;;4778253;29;20053;-88
2021/11/15 02:16:42;;;;;;;55.50;23.45;;;7.40;99.90;;;;;;4777017;29;20050;-87
2021/11/15 02:19:08;;;;;;;50.05;23.52;;;7.30;99.90;;;;;;4775205;29;20111;-87
2021/11/15 02:21:34;;;;;;;54.90;23.83;;;7.30;99.90;;;;;;4780251;29;20157;-88
2021/11/15 02:24:00;;;;;;;55.75;23.60;;;7.30;99.90;;;;;;4745150;29;20636;-87
2021/11/15 02:26:26;;;;;;;57.75;25.23;;;7.30;99.90;;;;;;4767284;29;20327;-85
2021/11/15 02:28:53;;;;;;;53.25;24.48;;;7.30;99.90;;;;;;4756338;29;20614;-87
2021/11/15 02:31:23;;;;;;;50.03;22.50;;;7.20;99.90;;;;;;4775690;29;20046;-88
2021/11/15 02:33:51;;;;;;;47.55;22.73;;;7.20;99.90;;;;;;4773163;29;20058;-86
2021/11/15 02:36:19;;;;;;;50.08;22.98;;;7.20;99.90;;;;;;4785816;29;20045;-87
2021/11/15 02:38:46;;;;;;;47.80;20.88;;;7.20;99.90;;;;;;4772353;29;20086;-88
2021/11/15 02:41:12;;;;;;;45.60;20.75;;;7.20;99.90;;;;;;4769643;29;20089;-87
2021/11/15 02:43:38;;;;;;;44.78;20.85;;;7.10;99.90;;;;;;4770589;29;20537;-87
2021/11/15 02:46:03;;;;;;;43.55;19.38;;;7.10;99.90;;;;;;4786137;29;20462;-86
2021/11/15 02:48:30;;;;;;;42.17;18.02;;;7.10;99.90;;;;;;4772162;29;20053;-88
2021/11/15 02:50:56;;;;;;;43.00;18.10;;;7.10;99.90;;;;;;4799819;29;20506;-88
2021/11/15 02:53:22;;;;;;;47.83;18.38;;;7.10;99.90;;;;;;4787251;29;20050;-91
2021/11/15 02:55:48;;;;;;;42.17;18.67;;;7.10;99.90;;;;;;4781580;29;20458;-87
2021/11/15 02:58:15;;;;;;;46.28;19.02;;;7.10;99.90;;;;;;4790563;29;20137;-88
2021/11/15 03:00:46;;;;;;;46.20;20.38;;;7.10;99.90;;;;;;4798705;29;20088;-88
2021/11/15 03:03:13;;;;;;;50.17;20.27;;;7.00;99.90;;;;;;4780159;29;20137;-85
2021/11/15 03:05:43;;;;;;;54.30;22.23;;;7.00;99.90;;;;;;4783784;29;20050;-86
2021/11/15 03:08:09;;;;;;;45.35;20.55;;;7.00;99.90;;;;;;4773355;29;20121;-87
2021/11/15 03:10:37;;;;;;;42.53;19.02;;;7.00;99.90;;;;;;4784233;29;20046;-87
2021/11/15 03:13:06;;;;;;;42.75;18.00;;;7.00;99.90;;;;;;4763373;29;20034;-87
2021/11/15 03:15:51;;;;;;;39.70;17.88;;;7.00;99.90;;;;;;4771644;29;20102;-89
2021/11/15 03:18:23;;;;;;;33.63;15.23;;;7.00;99.90;;;;;;4784846;29;20468;-88
2021/11/15 03:20:55;;;;;;;34.92;14.90;;;7.00;99.90;;;;;;4783143;29;20718;-85
2021/11/15 03:23:27;;;;;;;40.22;15.88;;;7.00;99.90;;;;;;4772900;29;20038;-87
2021/11/15 03:25:55;;;;;;;32.78;15.50;;;6.90;99.90;;;;;;4777637;29;20042;-87
2021/11/15 03:28:29;;;;;;;35.97;14.98;;;6.90;99.90;;;;;;4772124;29;20069;-88
2021/11/15 03:31:03;;;;;;;38.03;15.32;;;6.90;99.90;;;;;;4775605;29;20579;-87
2021/11/15 03:33:31;;;;;;;41.33;16.27;;;6.90;99.90;;;;;;4770608;29;20559;-87
2021/11/15 03:35:57;;;;;;;35.85;15.95;;;7.00;99.90;;;;;;4774874;29;20046;-88
2021/11/15 03:38:23;;;;;;;38.17;16.05;;;6.90;99.90;;;;;;4762342;29;20061;-86
2021/11/15 03:40:49;;;;;;;35.22;15.05;;;6.90;99.90;;;;;;4776191;29;20425;-87
2021/11/15 03:43:15;;;;;;;35.25;15.65;;;6.90;99.90;;;;;;4761786;29;20038;-89
2021/11/15 03:45:41;;;;;;;38.60;16.42;;;6.90;99.90;;;;;;4762529;29;20050;-88
2021/11/15 03:48:09;;;;;;;42.67;16.95;;;6.90;99.90;;;;;;4763199;29;20047;-87
2021/11/15 03:50:35;;;;;;;44.20;16.75;;;6.90;99.90;;;;;;4783899;29;20074;-87
2021/11/15 03:53:06;;;;;;;43.30;16.45;;;6.90;99.90;;;;;;4755985;29;20050;-86
2021/11/15 03:55:32;;;;;;;36.47;16.17;;;6.90;99.90;;;;;;4774959;29;20130;-88
2021/11/15 03:57:57;;;;;;;37.80;16.23;;;6.90;99.90;;;;;;4772553;29;20050;-87
2021/11/15 04:00:26;;;;;;;37.33;15.93;;;6.90;99.90;;;;;;4748915;29;20288;-86
2021/11/15 04:02:56;;;;;;;41.15;16.20;;;6.90;99.90;;;;;;4772503;29;20321;-85
2021/11/15 04:05:32;;;;;;;39.22;16.10;;;6.90;99.90;;;;;;4784844;29;20034;-86
2021/11/15 04:08:00;;;;;;;35.50;15.50;;;6.80;99.90;;;;;;4788727;29;20038;-87
2021/11/15 04:10:33;;;;;;;36.28;15.40;;;6.80;99.90;;;;;;4763116;29;20491;-87
2021/11/15 04:13:03;;;;;;;43.33;16.02;;;6.80;99.90;;;;;;4786355;29;20133;-88
2021/11/15 04:15:29;;;;;;;39.15;15.00;;;6.70;99.90;;;;;;4793144;29;20045;-88
2021/11/15 04:17:55;;;;;;;39.03;16.27;;;6.70;99.90;;;;;;4758079;29;20041;-88
2021/11/15 04:20:23;;;;;;;42.33;16.38;;;6.80;99.90;;;;;;4759010;29;20536;-88
2021/11/15 04:22:49;;;;;;;42.78;17.63;;;6.80;99.90;;;;;;4769624;29;20125;-89
2021/11/15 04:25:15;;;;;;;42.10;17.35;;;6.70;99.90;;;;;;4760206;29;20079;-88
2021/11/15 04:27:41;;;;;;;48.08;18.00;;;6.80;99.90;;;;;;4785830;29;20577;-86
2021/11/15 04:30:09;;;;;;;43.05;17.35;;;6.70;99.90;;;;;;4759632;29;20590;-86
2021/11/15 04:32:35;;;;;;;44.45;16.27;;;6.70;99.90;;;;;;4763975;29;20132;-86
2021/11/15 04:35:03;;;;;;;39.88;16.73;;;6.80;99.90;;;;;;4781130;29;20042;-87
2021/11/15 04:37:28;;;;;;;47.50;17.40;;;6.70;99.90;;;;;;4768827;29;20497;-88
2021/11/15 04:39:56;;;;;;;50.80;18.17;;;6.70;99.90;;;;;;4769787;29;20038;-88
2021/11/15 04:42:22;;;;;;;44.35;16.90;;;6.70;99.90;;;;;;4765249;29;20508;-87
2021/11/15 04:44:47;;;;;;;48.95;18.77;;;6.70;99.90;;;;;;4788218;29;20042;-88
2021/11/15 04:47:13;;;;;;;48.67;18.08;;;6.70;99.90;;;;;;4771848;29;20044;-88
2021/11/15 04:49:39;;;;;;;43.58;18.10;;;6.70;99.90;;;;;;4766773;29;20075;-87
2021/11/15 04:52:06;;;;;;;49.25;18.27;;;6.70;99.90;;;;;;4782386;29;20054;-87
2021/11/15 04:54:32;;;;;;;47.53;17.63;;;6.70;99.90;;;;;;4777848;29;20054;-86
2021/11/15 04:56:58;;;;;;;45.13;17.92;;;6.70;99.90;;;;;;4771933;29;20805;-87
2021/11/15 04:59:24;;;;;;;49.53;17.83;;;6.60;99.90;;;;;;4772157;29;20050;-89
2021/11/15 05:01:49;;;;;;;57.90;19.65;;;6.60;99.90;;;;;;4762767;29;20227;-87
2021/11/15 05:04:15;;;;;;;50.88;18.92;;;6.60;99.90;;;;;;4782293;29;20049;-88
2021/11/15 05:06:41;;;;;;;49.92;18.85;;;6.60;99.90;;;;;;4759759;29;20046;-87
2021/11/15 05:09:07;;;;;;;50.67;19.05;;;6.60;99.90;;;;;;4758516;29;20054;-87
2021/11/15 05:11:32;;;;;;;53.38;19.17;;;6.60;99.90;;;;;;4754759;29;20594;-88
2021/11/15 05:13:58;;;;;;;51.05;19.02;;;6.60;99.90;;;;;;4754108;29;20058;-87
2021/11/15 05:16:24;;;;;;;51.97;19.15;;;6.60;99.90;;;;;;4747499;29;20047;-87
2021/11/15 05:18:50;;;;;;;54.42;19.05;;;6.60;99.90;;;;;;4749225;29;20130;-87
2021/11/15 05:21:16;;;;;;;55.65;19.15;;;6.60;99.90;;;;;;4755636;29;20050;-88
2021/11/15 05:23:42;;;;;;;58.67;19.90;;;6.60;99.90;;;;;;4754148;29;20046;-87
2021/11/15 05:26:08;;;;;;;60.58;21.20;;;6.50;99.90;;;;;;4762966;29;20405;-88
2021/11/15 05:28:34;;;;;;;63.15;21.02;;;6.60;99.90;;;;;;4768295;29;20034;-86
2021/11/15 05:31:00;;;;;;;58.75;20.02;;;6.60;99.90;;;;;;4752489;29;20102;-87
2021/11/15 05:33:26;;;;;;;58.83;20.15;;;6.60;99.90;;;;;;4757154;29;20486;-88
2021/11/15 05:35:51;;;;;;;70.47;20.38;;;6.60;99.90;;;;;;4753816;29;20069;-88
2021/11/15 05:38:17;;;;;;;64.47;20.35;;;6.60;99.90;;;;;;4760049;29;20148;-88
2021/11/15 05:40:43;;;;;;;62.25;20.52;;;6.60;99.90;;;;;;4773129;29;20042;-88
2021/11/15 05:43:09;;;;;;;69.30;21.52;;;6.60;99.90;;;;;;4763043;29;20572;-87
2021/11/15 05:45:35;;;;;;;62.75;20.85;;;6.60;99.90;;;;;;4760399;29;20034;-87
2021/11/15 05:48:01;;;;;;;66.70;21.55;;;6.60;99.90;;;;;;4759838;29;20038;-88
2021/11/15 05:50:28;;;;;;;72.10;22.05;;;6.60;99.90;;;;;;4757694;29;20058;-88
2021/11/15 05:52:54;;;;;;;71.40;21.50;;;6.50;99.90;;;;;;4789358;29;20046;-89
2021/11/15 05:55:22;;;;;;;71.70;22.63;;;6.50;99.90;;;;;;4755552;29;20091;-88
2021/11/15 05:57:49;;;;;;;71.63;22.33;;;6.50;99.90;;;;;;4788134;29;20046;-88
2021/11/15 06:00:18;;;;;;;81.93;25.83;;;6.50;99.90;;;;;;4786141;29;20480;-88
2021/11/15 06:02:44;;;;;;;79.28;23.15;;;6.50;99.90;;;;;;4771594;29;20053;-88
2021/11/15 06:05:10;;;;;;;74.40;23.95;;;6.50;99.90;;;;;;4769114;29;20043;-87
2021/11/15 06:07:36;;;;;;;74.03;23.10;;;6.50;99.90;;;;;;4770597;29;20039;-88
2021/11/15 06:10:06;;;;;;;73.50;24.20;;;6.50;99.90;;;;;;4764002;29;20053;-88
2021/11/15 06:12:32;;;;;;;88.95;22.23;;;6.50;99.90;;;;;;4771214;29;20117;-88
2021/11/15 06:14:57;;;;;;;70.95;22.23;;;6.50;99.90;;;;;;4770125;29;20574;-87
2021/11/15 06:17:25;;;;;;;67.43;20.95;;;6.50;99.90;;;;;;4783288;29;20054;-87
2021/11/15 06:19:57;;;;;;;71.95;22.13;;;6.50;99.90;;;;;;4775870;29;20222;-87
2021/11/15 06:22:23;;;;;;;74.07;21.77;;;6.50;99.90;;;;;;4764037;29;20137;-88
2021/11/15 06:24:49;;;;;;;63.63;20.55;;;6.50;99.90;;;;;;4782833;29;20034;-88
2021/11/15 06:27:18;;;;;;;65.20;20.15;;;6.40;99.90;;;;;;4766417;29;20038;-89
2021/11/15 06:29:54;;;;;;;71.25;20.83;;;6.50;99.90;;;;;;4765116;29;20046;-91
2021/11/15 06:32:20;;;;;;;70.78;20.88;;;6.40;99.90;;;;;;4774405;29;20121;-88
2021/11/15 06:34:45;;;;;;;63.83;20.02;;;6.40;99.90;;;;;;4779186;29;20170;-87
2021/11/15 06:37:11;;;;;;;68.35;19.83;;;6.40;99.90;;;;;;4771502;29;20058;-87
2021/11/15 06:39:37;;;;;;;67.90;20.83;;;6.40;99.90;;;;;;4782288;29;20046;-88
2021/11/15 06:42:03;;;;;;;67.20;19.75;;;6.50;99.90;;;;;;4764536;29;20414;-88
2021/11/15 06:44:31;;;;;;;66.68;20.80;;;6.40;99.90;;;;;;4779940;29;20353;-87
2021/11/15 06:46:58;;;;;;;54.42;18.45;;;6.40;99.90;;;;;;4771200;29;20090;-87
2021/11/15 06:49:25;;;;;;;59.20;18.05;;;6.40;99.90;;;;;;4774298;29;20074;-87
2021/11/15 06:51:51;;;;;;;64.00;20.55;;;6.40;99.90;;;;;;4772125;29;20042;-85
2021/11/15 06:54:17;;;;;;;57.63;19.83;;;6.40;99.90;;;;;;4757958;29;20046;-85
2021/11/15 06:56:44;;;;;;;63.35;18.92;;;6.30;99.90;;;;;;4773564;29;20050;-84
2021/11/15 06:59:10;;;;;;;59.83;19.92;;;6.30;99.90;;;;;;4766176;29;20042;-87
2021/11/15 07:01:37;;;;;;;54.88;18.42;;;6.30;99.90;;;;;;4781820;29;20082;-87
2021/11/15 07:04:08;;;;;;;65.38;20.35;;;6.30;99.90;;;;;;4772579;29;20058;-86
2021/11/15 07:06:36;;;;;;;61.20;19.47;;;6.30;99.90;;;;;;4783550;29;20129;-89
2021/11/15 07:09:03;;;;;;;62.97;19.40;;;6.30;99.90;;;;;;4777613;29;20336;-86
2021/11/15 07:11:30;;;;;;;46.25;16.75;;;6.20;99.90;;;;;;4750992;29;20069;-87
2021/11/15 07:13:58;;;;;;;57.95;18.85;;;6.20;99.90;;;;;;4762905;29;20727;-87
2021/11/15 07:16:24;;;;;;;58.38;18.50;;;6.20;99.90;;;;;;4780778;29;20075;-87
2021/11/15 07:18:52;;;;;;;52.80;17.83;;;6.20;99.90;;;;;;4752465;29;20661;-87
2021/11/15 07:21:20;;;;;;;60.47;18.80;;;6.20;99.90;;;;;;4762827;29;21672;-87
2021/11/15 07:23:46;;;;;;;59.00;18.08;;;6.20;99.90;;;;;;4776061;29;20445;-89
2021/11/15 07:26:12;;;;;;;52.03;15.50;;;6.20;99.90;;;;;;4758245;29;20050;-87
2021/11/15 07:28:38;;;;;;;53.97;16.75;;;6.20;99.90;;;;;;4764792;29;20042;-86
2021/11/15 07:31:04;;;;;;;58.08;17.45;;;6.30;99.90;;;;;;4780658;29;20038;-87
2021/11/15 07:33:30;;;;;;;55.25;16.20;;;6.30;99.90;;;;;;4767187;29;20153;-86
2021/11/15 07:35:55;;;;;;;55.13;17.55;;;6.30;99.90;;;;;;4765916;29;20046;-86
2021/11/15 07:38:21;;;;;;;53.80;15.75;;;6.30;99.90;;;;;;4765099;29;20053;-87
2021/11/15 07:40:48;;;;;;;54.42;17.23;;;6.30;99.90;;;;;;4772333;29;20042;-87
2021/11/15 07:43:14;;;;;;;56.30;17.33;;;6.30;99.90;;;;;;4770213;29;20480;-88
2021/11/15 07:45:41;;;;;;;53.58;15.88;;;6.20;99.90;;;;;;4761235;29;20066;-87
2021/11/15 07:48:06;;;;;;;50.20;16.13;;;6.30;99.90;;;;;;4779509;29;20095;-86
2021/11/15 07:50:33;;;;;;;46.03;15.48;;;6.30;99.90;;;;;;4749857;29;20042;-87
2021/11/15 07:52:58;;;;;;;56.85;17.45;;;6.30;99.90;;;;;;4768598;29;20049;-88
2021/11/15 07:55:24;;;;;;;41.15;15.20;;;6.20;99.90;;;;;;4771286;29;20785;-87
2021/11/15 07:57:50;;;;;;;46.88;15.40;;;6.20;99.90;;;;;;4800573;29;20677;-88
2021/11/15 08:00:21;;;;;;;49.25;15.65;;;6.20;99.90;;;;;;4766522;29;20192;-88
2021/11/15 08:02:47;;;;;;;41.38;14.23;;;6.20;99.90;;;;;;4791395;29;20510;-86
2021/11/15 08:05:15;;;;;;;39.95;14.55;;;6.30;99.90;;;;;;4765977;29;20432;-86
2021/11/15 08:07:42;;;;;;;50.42;14.68;;;6.30;99.90;;;;;;4778375;29;20129;-88
2021/11/15 08:10:10;;;;;;;37.45;13.68;;;6.30;99.90;;;;;;4777584;29;20149;-85
2021/11/15 08:12:38;;;;;;;47.55;14.70;;;6.30;99.90;;;;;;4777429;29;20137;-86
2021/11/15 08:15:07;;;;;;;44.58;14.68;;;6.30;99.90;;;;;;4779221;29;20049;-87
2021/11/15 08:17:35;;;;;;;41.60;14.88;;;6.30;99.90;;;;;;4767208;29;20046;-88
2021/11/15 08:20:03;;;;;;;53.47;15.15;;;6.30;99.90;;;;;;4776803;29;20200;-87
2021/11/15 08:22:29;;;;;;;51.70;14.43;;;6.30;99.90;;;;;;4747006;29;20057;-86
2021/11/15 08:25:00;;;;;;;43.75;14.50;;;6.30;99.90;;;;;;4762851;29;20042;-88
2021/11/15 08:27:27;;;;;;;43.30;14.13;;;6.30;99.90;;;;;;4790961;29;20050;-87
2021/11/15 08:29:55;;;;;;;48.55;14.27;;;6.30;99.90;;;;;;4776117;29;20042;-86
2021/11/15 08:32:24;;;;;;;44.85;15.15;;;6.30;99.90;;;;;;4761437;29;20073;-87
2021/11/15 08:34:55;;;;;;;43.47;14.15;;;6.30;99.90;;;;;;4761335;29;20057;-86
2021/11/15 08:37:22;;;;;;;40.13;13.77;;;6.30;99.90;;;;;;4792257;29;20057;-87
2021/11/15 08:39:48;;;;;;;46.67;14.48;;;6.30;99.90;;;;;;4781402;29;20085;-85
2021/11/15 08:42:20;;;;;;;43.17;13.98;;;6.30;99.90;;;;;;4765084;29;20502;-88
2021/11/15 08:44:54;;;;;;;45.33;13.37;;;6.30;99.90;;;;;;4762730;29;20156;-86
2021/11/15 08:47:21;;;;;;;42.35;13.93;;;6.30;99.90;;;;;;4767379;29;20054;-84
2021/11/15 08:49:51;;;;;;;33.20;12.43;;;6.30;99.90;;;;;;4773190;29;20065;-87
2021/11/15 08:52:17;;;;;;;38.53;14.13;;;6.30;99.90;;;;;;4765741;29;20106;-86
2021/11/15 08:54:47;;;;;;;39.13;13.57;;;6.30;99.90;;;;;;4785865;29;20054;-86
2021/11/15 08:57:13;;;;;;;38.35;13.15;;;6.30;99.90;;;;;;4776414;29;20051;-87
2021/11/15 08:59:42;;;;;;;39.17;14.43;;;6.30;99.90;;;;;;4789206;29;20113;-88
2021/11/15 09:02:07;;;;;;;38.92;13.13;;;6.30;99.90;;;;;;4792548;29;20487;-85
2021/11/15 09:04:36;;;;;;;39.78;12.70;;;6.30;99.90;;;;;;4768640;29;20049;-87
2021/11/15 09:07:02;;;;;;;46.28;15.40;;;6.30;99.90;;;;;;4767869;29;20149;-86
2021/11/15 09:09:28;;;;;;;37.70;13.95;;;6.30;99.90;;;;;;4775206;29;20128;-85
2021/11/15 09:11:58;;;;;;;43.30;13.95;;;6.30;99.90;;;;;;4767327;29;20510;-88
2021/11/15 09:14:23;;;;;;;34.13;12.38;;;6.30;99.90;;;;;;4786087;29;20042;-86
2021/11/15 09:16:51;;;;;;;40.92;13.65;;;6.20;99.90;;;;;;4772129;29;20068;-86
2021/11/15 09:19:18;;;;;;;40.75;14.15;;;6.20;99.90;;;;;;4783922;29;20490;-86
2021/11/15 09:21:45;;;;;;;36.35;13.00;;;6.20;99.90;;;;;;4777383;29;20043;-89
2021/11/15 09:24:11;;;;;;;37.67;13.63;;;6.20;99.90;;;;;;4792454;29;20047;-87
2021/11/15 09:26:37;;;;;;;39.40;14.20;;;6.20;99.90;;;;;;4764998;29;20084;-87
2021/11/15 09:29:06;;;;;;;36.30;13.18;;;6.20;99.90;;;;;;4792979;29;20038;-86
2021/11/15 09:31:32;;;;;;;43.70;14.40;;;6.20;99.90;;;;;;4783175;29;20046;-86
2021/11/15 09:33:58;;;;;;;45.83;14.70;;;6.20;99.90;;;;;;4766273;29;20042;-86
2021/11/15 09:36:24;;;;;;;39.97;14.23;;;6.20;99.90;;;;;;4787170;29;20101;-86
2021/11/15 09:38:57;;;;;;;46.08;15.40;;;6.20;99.90;;;;;;4790602;29;20084;-86
2021/11/15 09:41:23;;;;;;;;;;;6.20;99.90;;;;;;4801522;29;20046;-86
2021/11/15 09:43:49;;;;;;;49.78;14.93;;;6.20;99.90;;;;;;4779488;29;19973;-85
2021/11/15 09:46:19;;;;;;;57.67;17.15;;;6.20;99.90;;;;;;4767025;29;20586;-87
2021/11/15 09:48:51;;;;;;;54.58;16.13;;;6.30;99.90;;;;;;4785157;29;20042;-86
2021/11/15 09:51:18;;;;;;;53.47;15.87;;;6.20;99.90;;;;;;4795380;29;20115;-87
2021/11/15 09:53:45;;;;;;;61.08;17.48;;;6.30;99.90;;;;;;4795929;29;20957;-88
2021/11/15 09:56:14;;;;;;;55.97;17.40;;;6.30;99.90;;;;;;4785226;29;20050;-87
2021/11/15 09:58:42;;;;;;;54.50;16.40;;;6.30;99.90;;;;;;4789652;29;20732;-86
2021/11/15 10:01:09;;;;;;;59.13;17.50;;;6.30;99.90;;;;;;4790712;29;20050;-84
2021/11/15 10:03:35;;;;;;;58.53;17.85;;;6.30;99.90;;;;;;4752693;29;20514;-86
2021/11/15 10:06:02;;;;;;;59.45;18.30;;;6.30;99.90;;;;;;4782933;29;20210;-86
2021/11/15 10:08:51;;;;;;;75.80;20.33;;;6.30;99.90;;;;;;4766073;29;20494;-86
2021/11/15 10:11:20;;;;;;;79.90;21.67;;;6.30;99.90;;;;;;4774205;29;20511;-86
2021/11/15 10:13:47;;;;;;;67.07;21.52;;;6.30;99.90;;;;;;4807711;29;20129;-84
2021/11/15 10:16:32;;;;;;;74.88;22.52;;;6.30;99.90;;;;;;4782005;29;20060;-86
2021/11/15 10:19:09;;;;;;;73.07;22.08;;;6.30;99.90;;;;;;4780039;29;20549;-87
2021/11/15 10:21:40;;;;;;;73.63;22.33;;;6.30;99.90;;;;;;4759882;29;20074;-85
2021/11/15 10:24:11;;;;;;;70.05;21.85;;;6.30;99.90;;;;;;4777715;29;20038;-87
2021/11/15 10:26:54;;;;;;;68.90;21.33;;;6.30;99.90;;;;;;4781944;29;20133;-87
2021/11/15 10:29:27;;;;;;;71.90;23.77;;;6.30;99.90;;;;;;4783728;29;20110;-86
2021/11/15 10:32:01;;;;;;;80.90;24.83;;;6.30;99.90;;;;;;4796015;29;20082;-86
2021/11/15 10:34:36;;;;;;;89.88;26.60;;;6.30;99.90;;;;;;4781618;29;20057;-87
2021/11/15 10:37:10;;;;;;;87.47;26.17;;;6.30;99.90;;;;;;4786974;29;20080;-85
2021/11/15 10:40:09;;;;;;;94.88;27.15;;;6.20;99.90;;;;;;4785776;29;20099;-86
2021/11/15 10:42:45;;;;;;;97.53;27.38;;;6.20;99.90;;;;;;4786614;29;20419;-88
2021/11/15 10:45:23;;;;;;;90.57;27.65;;;6.20;99.90;;;;;;4789424;29;20055;-86
2021/11/15 10:47:54;;;;;;;104.00;28.75;;;6.20;99.90;;;;;;4782620;29;20042;-88
2021/11/15 10:50:31;;;;;;;100.82;29.45;;;6.30;99.90;;;;;;4787604;29;20203;-89
2021/11/15 10:53:06;;;;;;;103.63;29.42;;;6.30;99.90;;;;;;4783491;29;20062;-86
2021/11/15 10:55:46;;;;;;;108.45;30.80;;;6.30;99.90;;;;;;4780807;29;20038;-85
2021/11/15 10:58:20;;;;;;;97.93;31.13;;;6.30;99.90;;;;;;4773805;29;20050;-86
2021/11/15 11:00:55;;;;;;;112.15;31.27;;;6.20;99.90;;;;;;4800990;29;20050;-86
2021/11/15 11:03:23;;;;;;;109.43;32.13;;;6.20;99.90;;;;;;4785606;29;20502;-87
2021/11/15 11:05:52;;;;;;;116.72;33.10;;;6.20;99.90;;;;;;4807490;29;20046;-89
2021/11/15 11:08:38;;;;;;;110.25;33.38;;;6.20;99.90;;;;;;4788920;29;20336;-88
2021/11/15 11:11:09;;;;;;;106.63;34.47;;;6.20;99.90;;;;;;4790539;29;20042;-86
2021/11/15 11:13:56;;;;;;;105.50;32.60;;;6.20;99.90;;;;;;4785032;29;20091;-85
2021/11/15 11:16:44;;;;;;;103.03;31.63;;;6.20;99.90;;;;;;4789897;29;20054;-85
2021/11/15 11:19:43;;;;;;;115.20;35.58;;;6.20;99.90;;;;;;4800776;29;20088;-85
2021/11/15 11:27:27;;;;;;;114.68;35.83;;;6.20;99.90;;;;;;4784148;29;20047;-88
2021/11/15 11:29:54;;;;;;;116.88;35.72;;;6.20;99.90;;;;;;4778047;29;20039;-87
2021/11/15 11:32:23;;;;;;;116.85;36.33;;;6.20;99.90;;;;;;4769263;29;20047;-88
2021/11/15 11:34:51;;;;;;;104.38;34.55;;;6.30;99.90;;;;;;4785283;29;20046;-89
2021/11/15 11:37:19;;;;;;;105.60;35.50;;;6.30;99.90;;;;;;4790653;29;20049;-87
2021/11/15 11:39:46;;;;;;;104.18;34.58;;;6.30;99.90;;;;;;4772303;29;20543;-88
2021/11/15 11:42:15;;;;;;;100.00;34.75;;;6.30;99.90;;;;;;4787878;29;20478;-87
2021/11/15 11:44:41;;;;;;;109.50;35.95;;;6.30;99.90;;;;;;4770993;29;20038;-87
2021/11/15 11:47:09;;;;;;;108.82;36.15;;;6.30;99.90;;;;;;4777484;29;20388;-88
2021/11/15 11:49:37;;;;;;;104.80;35.33;;;6.30;99.90;;;;;;4786122;29;20106;-88
2021/11/15 11:52:07;;;;;;;99.75;35.55;;;6.30;99.90;;;;;;4783027;29;20627;-87
2021/11/15 11:54:36;;;;;;;107.60;35.28;;;6.30;99.90;;;;;;4785425;29;20053;-87
2021/11/15 11:57:14;;;;;;;106.47;36.35;;;6.30;99.90;;;;;;4787775;29;20038;-88
2021/11/15 11:59:48;;;;;;;108.40;38.08;;;6.40;99.90;;;;;;4787945;29;20065;-87
2021/11/15 12:02:22;;;;;;;106.63;37.75;;;6.40;99.90;;;;;;4800910;29;20042;-88
2021/11/15 12:04:53;;;;;;;101.07;36.03;;;6.40;99.90;;;;;;4800143;29;20418;-88
2021/11/15 12:07:24;;;;;;;112.97;38.13;;;6.40;99.90;;;;;;4787084;29;20137;-86
2021/11/15 12:09:50;;;;;;;107.57;37.88;;;6.40;99.90;;;;;;4773075;29;20277;-85
2021/11/15 12:12:16;;;;;;;108.40;37.88;;;6.40;99.90;;;;;;4764297;29;20060;-87
2021/11/15 12:14:42;;;;;;;104.90;35.22;;;6.40;99.90;;;;;;4771614;29;20127;-85
2021/11/15 12:17:17;;;;;;;108.47;36.83;;;6.40;99.90;;;;;;4779592;29;20042;-86
2021/11/15 12:19:51;;;;;;;114.65;37.92;;;6.40;99.90;;;;;;4791472;29;20056;-86
2021/11/15 12:22:28;;;;;;;117.63;38.22;;;6.40;99.90;;;;;;4791596;29;20046;-89
2021/11/15 12:25:04;;;;;;;108.57;38.28;;;6.40;99.90;;;;;;4783904;29;20035;-86
2021/11/15 12:27:49;;;;;;;106.70;37.60;;;6.40;99.90;;;;;;4786582;29;20046;-90
2021/11/15 12:30:21;;;;;;;106.65;36.83;;;6.40;99.90;;;;;;4791131;29;20098;-86
2021/11/15 12:33:17;;;;;;;100.32;36.13;;;6.40;99.90;;;;;;4781627;29;20054;-86
2021/11/15 12:35:51;;;;;;;94.03;35.72;;;6.40;99.90;;;;;;4788666;29;20095;-86
2021/11/15 12:38:36;;;;;;;106.40;37.55;;;6.40;99.90;;;;;;4785594;29;20050;-85
2021/11/15 12:41:23;;;;;;;104.68;38.47;;;6.40;99.90;;;;;;4793558;29;20038;-86
2021/11/15 12:44:02;;;;;;;98.18;35.50;;;6.40;99.90;;;;;;4797909;29;20061;-87
2021/11/15 12:47:00;;;;;;;97.82;35.75;;;6.40;99.90;;;;;;4805137;29;20585;-85
2021/11/15 12:49:25;;;;;;;105.55;37.50;;;6.40;99.90;;;;;;4775639;29;20442;-86